createdAt,value
2018-06-27T00:01:46.277Z,95.80
2018-06-27T00:04:15.867Z,95.70
2018-06-27T00:06:44.809Z,95.40
2018-06-27T00:09:13.794Z,95.40
2018-06-27T00:14:11.203Z,95.30
2018-06-27T00:16:40.146Z,95.50
2018-06-27T00:19:09.136Z,95.50
2018-06-27T00:21:38.546Z,95.60
2018-06-27T00:24:07.511Z,95.40
2018-06-27T00:26:36.511Z,95.30
2018-06-27T00:29:05.529Z,95.40
2018-06-27T00:31:34.587Z,95.40
2018-06-27T00:34:31.619Z,95.70
2018-06-27T00:37:00.662Z,95.70
2018-06-27T00:39:29.766Z,95.60
2018-06-27T00:41:58.779Z,95.40
2018-06-27T00:44:27.731Z,95.40
2018-06-27T00:46:56.672Z,95.20
2018-06-27T00:49:25.611Z,95.40
2018-06-27T00:51:54.571Z,95.40
2018-06-27T00:59:21.156Z,94.70
2018-06-27T01:01:50.138Z,94.70
2018-06-27T01:04:19.092Z,94.90
2018-06-27T01:06:48.026Z,94.50
2018-06-27T01:09:17.047Z,94.80
2018-06-27T01:11:46.003Z,94.90
2018-06-27T01:14:16.301Z,94.90
2018-06-27T01:16:45.275Z,94.70
2018-06-27T01:19:14.194Z,94.80
2018-06-27T01:21:43.133Z,94.80
2018-06-27T01:24:12.063Z,95.30
2018-06-27T01:26:40.982Z,95.20
2018-06-27T01:29:09.905Z,95.50
2018-06-27T01:31:38.875Z,94.90
2018-06-27T01:34:07.783Z,95.20
2018-06-27T01:36:36.701Z,94.20
2018-06-27T01:39:06.875Z,94.20
2018-06-27T01:41:35.829Z,94.70
2018-06-27T01:44:04.908Z,95.10
2018-06-27T01:46:33.846Z,95.50
2018-06-27T01:49:02.799Z,95.20
2018-06-27T01:51:31.755Z,95.60
2018-06-27T01:54:00.673Z,95.40
2018-06-27T01:56:29.616Z,95.50
2018-06-27T01:58:58.518Z,95.30
2018-06-27T02:01:27.439Z,95.30
2018-06-27T02:03:56.424Z,95.20
2018-06-27T02:06:25.405Z,95.40
2018-06-27T02:08:54.309Z,95.80
2018-06-27T02:11:23.234Z,95.90
2018-06-27T02:13:52.249Z,95.70
2018-06-27T02:16:21.330Z,95.80
2018-06-27T02:18:50.638Z,96.30
2018-06-27T02:21:19.546Z,96.00
2018-06-27T02:23:48.501Z,95.90
2018-06-27T02:28:47.076Z,96.30
2018-06-27T02:31:15.974Z,96.40
2018-06-27T02:33:45.163Z,96.80
2018-06-27T02:36:14.116Z,96.60
2018-06-27T02:38:43.093Z,96.70
2018-06-27T02:41:12.025Z,96.80
2018-06-27T02:43:40.982Z,97.20
2018-06-27T02:46:09.937Z,97.00
2018-06-27T02:48:38.875Z,97.00
2018-06-27T02:51:07.931Z,96.70
2018-06-27T02:53:36.877Z,96.90
2018-06-27T02:56:06.578Z,96.80
2018-06-27T02:58:35.658Z,97.00
2018-06-27T03:01:04.642Z,97.10
2018-06-27T03:03:33.633Z,97.20
2018-06-27T03:06:02.700Z,97.40
2018-06-27T03:08:31.643Z,97.20
2018-06-27T03:11:00.569Z,97.20
2018-06-27T03:13:29.499Z,97.10
2018-06-27T03:15:58.440Z,96.80
2018-06-27T03:20:55.815Z,96.90
2018-06-27T03:23:24.757Z,96.70
2018-06-27T03:25:53.717Z,96.50
2018-06-27T03:28:22.698Z,96.80
2018-06-27T03:30:51.665Z,97.00
2018-06-27T03:33:20.610Z,96.80
2018-06-27T03:35:49.783Z,96.60
2018-06-27T03:38:18.997Z,96.50
2018-06-27T03:40:47.942Z,96.50
2018-06-27T03:43:17.040Z,96.70
2018-06-27T03:45:45.982Z,96.70
2018-06-27T03:48:14.930Z,96.80
2018-06-27T03:50:43.825Z,96.90
2018-06-27T03:53:12.771Z,96.60
2018-06-27T03:55:41.690Z,96.50
2018-06-27T03:58:10.655Z,96.10
2018-06-27T04:00:39.580Z,95.70
2018-06-27T04:03:08.608Z,94.90
2018-06-27T04:05:37.602Z,94.50
2018-06-27T04:08:06.529Z,93.90
2018-06-27T04:10:35.561Z,93.20
2018-06-27T04:13:04.648Z,93.00
2018-06-27T04:15:35.848Z,92.90
2018-06-27T04:18:05.169Z,92.00
2018-06-27T04:20:34.095Z,92.30
2018-06-27T04:23:03.038Z,91.40
2018-06-27T04:25:31.970Z,91.60
2018-06-27T04:28:01.101Z,91.20
2018-06-27T04:30:30.133Z,91.00
2018-06-27T04:32:59.169Z,91.40
2018-06-27T04:35:28.171Z,92.50
2018-06-27T04:37:57.210Z,92.00
2018-06-27T04:40:26.214Z,91.80
2018-06-27T04:42:55.125Z,91.50
2018-06-27T04:45:24.119Z,91.20
2018-06-27T04:47:53.106Z,90.90
2018-06-27T04:50:21.985Z,90.10
2018-06-27T04:52:50.980Z,90.90
2018-06-27T04:55:19.925Z,90.70
2018-06-27T04:57:48.977Z,90.00
2018-06-27T05:00:17.909Z,89.00
2018-06-27T05:02:46.885Z,89.30
2018-06-27T05:05:15.920Z,88.40
2018-06-27T05:07:44.862Z,89.90
2018-06-27T05:10:14.034Z,89.20
2018-06-27T05:12:42.982Z,88.50
2018-06-27T05:15:12.129Z,88.70
2018-06-27T05:17:41.225Z,88.80
2018-06-27T05:20:10.209Z,87.60
2018-06-27T05:22:39.157Z,85.80
2018-06-27T05:25:08.074Z,85.50
2018-06-27T05:27:37.266Z,86.40
2018-06-27T05:30:06.300Z,86.10
2018-06-27T05:32:35.273Z,84.10
2018-06-27T05:35:04.253Z,85.00
2018-06-27T05:37:33.314Z,83.70
2018-06-27T05:40:02.319Z,83.30
2018-06-27T05:42:31.257Z,83.90
2018-06-27T05:45:00.229Z,85.60
2018-06-27T05:47:29.326Z,84.30
2018-06-27T05:49:58.238Z,83.40
2018-06-27T05:54:55.683Z,84.40
2018-06-27T05:57:24.610Z,84.40
2018-06-27T05:59:53.682Z,85.00
2018-06-27T06:02:22.685Z,85.30
2018-06-27T06:04:51.596Z,84.30
2018-06-27T06:07:20.585Z,85.30
2018-06-27T06:09:49.597Z,84.80
2018-06-27T06:12:18.683Z,84.20
2018-06-27T06:14:47.656Z,82.60
2018-06-27T06:17:16.647Z,83.80
2018-06-27T06:19:45.714Z,82.90
2018-06-27T06:22:14.836Z,83.10
2018-06-27T06:24:43.974Z,83.20
2018-06-27T06:27:12.954Z,83.40
2018-06-27T06:29:42.022Z,83.30
2018-06-27T06:32:11.031Z,84.20
2018-06-27T06:34:39.918Z,82.20
2018-06-27T06:37:08.890Z,82.00
2018-06-27T06:39:37.837Z,81.80
2018-06-27T06:42:06.847Z,81.50
2018-06-27T06:44:35.837Z,80.90
2018-06-27T06:47:04.797Z,81.00
2018-06-27T06:49:33.714Z,80.70
2018-06-27T06:52:02.685Z,79.50
2018-06-27T06:54:31.565Z,80.20
2018-06-27T06:57:00.618Z,82.10
2018-06-27T06:59:29.529Z,81.20
2018-06-27T07:01:58.454Z,82.20
2018-06-27T07:04:27.404Z,81.60
2018-06-27T07:06:56.337Z,83.40
2018-06-27T07:09:25.322Z,85.10
2018-06-27T07:11:54.237Z,84.90
2018-06-27T07:14:23.179Z,85.80
2018-06-27T07:16:52.157Z,85.10
2018-06-27T07:19:21.235Z,86.70
2018-06-27T07:21:50.218Z,85.50
2018-06-27T07:24:19.166Z,87.10
2018-06-27T07:26:49.326Z,86.10
2018-06-27T07:29:18.258Z,87.10
2018-06-27T07:31:47.159Z,86.40
2018-06-27T07:34:16.126Z,87.70
2018-06-27T07:36:45.174Z,87.60
2018-06-27T07:39:14.130Z,87.30
2018-06-27T07:41:43.062Z,87.30
2018-06-27T07:44:11.990Z,88.30
2018-06-27T07:46:40.931Z,88.50
2018-06-27T07:49:09.918Z,89.30
2018-06-27T07:51:38.876Z,89.40
2018-06-27T07:54:07.862Z,89.50
2018-06-27T07:56:36.813Z,89.90
2018-06-27T07:59:05.831Z,89.60
2018-06-27T08:01:34.775Z,90.20
2018-06-27T08:04:03.760Z,90.10
2018-06-27T08:06:32.741Z,89.00
2018-06-27T08:09:01.919Z,90.00
2018-06-27T08:11:30.896Z,89.80
2018-06-27T08:13:59.946Z,88.90
2018-06-27T08:16:28.949Z,89.30
2018-06-27T08:18:57.921Z,90.00
2018-06-27T08:21:26.978Z,90.00
2018-06-27T08:23:55.972Z,89.70
2018-06-27T08:26:25.180Z,88.80
2018-06-27T08:28:54.003Z,89.40
2018-06-27T08:31:23.066Z,89.50
2018-06-27T08:33:52.062Z,89.80
2018-06-27T08:36:21.309Z,89.40
2018-06-27T08:38:50.302Z,89.60
2018-06-27T08:41:19.334Z,88.20
2018-06-27T08:43:48.330Z,90.10
2018-06-27T08:46:17.260Z,89.40
2018-06-27T08:48:46.203Z,89.70
2018-06-27T08:51:15.255Z,89.90
2018-06-27T08:53:44.190Z,89.70
2018-06-27T08:56:13.132Z,89.20
2018-06-27T08:58:42.154Z,89.20
2018-06-27T09:01:11.109Z,89.00
2018-06-27T09:03:40.214Z,88.80
2018-06-27T09:06:09.161Z,89.40
2018-06-27T09:08:38.126Z,89.20
2018-06-27T09:11:07.101Z,88.40
2018-06-27T09:13:36.006Z,87.50
2018-06-27T09:16:04.979Z,87.80
2018-06-27T09:18:33.947Z,87.30
2018-06-27T09:21:02.833Z,86.30
2018-06-27T09:26:00.225Z,84.90
2018-06-27T09:28:29.141Z,84.60
2018-06-27T09:30:58.078Z,84.40
2018-06-27T09:33:27.062Z,83.40
2018-06-27T09:35:56.039Z,85.30
2018-06-27T09:38:24.974Z,85.70
2018-06-27T09:40:53.891Z,84.10
2018-06-27T09:43:22.862Z,83.70
2018-06-27T09:45:51.775Z,82.90
2018-06-27T09:48:21.002Z,84.00
2018-06-27T09:50:50.058Z,84.00
2018-06-27T09:53:19.047Z,84.40
2018-06-27T09:55:48.405Z,83.90
2018-06-27T09:58:17.471Z,83.00
2018-06-27T10:00:46.401Z,83.50
2018-06-27T10:03:15.567Z,83.10
2018-06-27T10:05:44.491Z,83.20
2018-06-27T10:08:13.605Z,82.90
2018-06-27T10:10:42.606Z,80.60
2018-06-27T10:13:11.536Z,81.20
2018-06-27T10:15:40.438Z,82.00
2018-06-27T10:20:37.802Z,82.10
2018-06-27T10:23:06.803Z,82.50
2018-06-27T10:25:35.763Z,81.90
2018-06-27T10:28:04.901Z,80.90
2018-06-27T10:30:33.855Z,81.60
2018-06-27T10:33:02.806Z,80.60
2018-06-27T10:35:31.858Z,81.40
2018-06-27T10:38:00.810Z,80.90
2018-06-27T10:40:29.767Z,80.40
2018-06-27T10:42:58.707Z,80.90
2018-06-27T10:45:27.634Z,80.50
2018-06-27T10:47:56.706Z,82.00
2018-06-27T10:50:25.633Z,79.80
2018-06-27T10:52:54.548Z,80.90
2018-06-27T10:55:23.497Z,80.90
2018-06-27T10:57:52.509Z,81.10
2018-06-27T11:00:21.503Z,81.30
2018-06-27T11:02:50.565Z,81.50
2018-06-27T11:05:19.566Z,83.10
2018-06-27T11:07:48.712Z,82.60
2018-06-27T11:10:17.664Z,82.00
2018-06-27T11:12:46.832Z,81.60
2018-06-27T11:17:44.614Z,82.00
2018-06-27T11:20:14.615Z,80.60
2018-06-27T11:22:43.887Z,80.40
2018-06-27T11:25:13.213Z,78.70
2018-06-27T11:27:42.411Z,76.90
2018-06-27T11:30:11.503Z,78.00
2018-06-27T11:32:40.632Z,74.40
2018-06-27T11:35:09.764Z,75.30
2018-06-27T11:37:39.364Z,74.70
2018-06-27T11:40:08.650Z,75.90
2018-06-27T11:42:37.789Z,72.20
2018-06-27T11:45:07.053Z,71.10
2018-06-27T11:47:36.094Z,70.90
2018-06-27T11:50:05.387Z,71.30
2018-06-27T11:52:34.309Z,70.90
2018-06-27T11:55:03.393Z,70.70
2018-06-27T11:57:32.517Z,69.80
2018-06-27T12:00:01.687Z,69.20
2018-06-27T12:02:30.836Z,70.50
2018-06-27T12:04:59.801Z,71.10
2018-06-27T12:07:28.998Z,68.50
2018-06-27T12:09:58.057Z,67.90
2018-06-27T12:12:27.222Z,68.70
2018-06-27T12:14:56.301Z,69.80
2018-06-27T12:17:25.392Z,69.00
2018-06-27T12:19:54.509Z,68.90
2018-06-27T12:22:23.746Z,69.50
2018-06-27T12:24:52.881Z,67.70
2018-06-27T12:27:22.151Z,68.40
2018-06-27T12:29:51.451Z,69.00
2018-06-27T12:32:20.612Z,69.00
2018-06-27T12:34:49.950Z,69.30
2018-06-27T12:37:18.947Z,69.50
2018-06-27T12:39:48.771Z,68.80
2018-06-27T12:42:17.880Z,69.10
2018-06-27T12:44:47.140Z,70.60
2018-06-27T13:00:16.268Z,68.10
2018-06-27T13:02:45.306Z,67.40
2018-06-27T13:05:14.317Z,67.70
2018-06-27T13:07:43.332Z,67.60
2018-06-27T13:10:12.275Z,65.70
2018-06-27T13:12:41.307Z,66.20
2018-06-27T13:15:10.294Z,67.10
2018-06-27T13:17:39.227Z,65.70
2018-06-27T13:20:08.240Z,66.30
2018-06-27T13:22:37.246Z,67.10
2018-06-27T13:25:06.257Z,67.00
2018-06-27T13:30:04.557Z,67.80
2018-06-27T13:32:33.527Z,66.40
2018-06-27T13:35:02.588Z,65.80
2018-06-27T13:37:31.721Z,66.80
2018-06-27T13:40:00.650Z,66.80
2018-06-27T13:42:29.696Z,67.10
2018-06-27T13:44:58.824Z,65.00
2018-06-27T13:47:27.870Z,66.20
2018-06-27T13:49:57.095Z,66.50
2018-06-27T13:52:26.070Z,67.10
2018-06-27T13:54:54.977Z,66.40
2018-06-27T13:57:24.026Z,65.10
2018-06-27T14:02:21.509Z,65.90
2018-06-27T14:04:50.451Z,66.30
2018-06-27T14:07:19.543Z,67.10
2018-06-27T14:09:48.534Z,66.10
2018-06-27T14:12:17.548Z,65.60
2018-06-27T14:14:46.543Z,65.00
2018-06-27T14:17:15.473Z,65.10
2018-06-27T14:19:44.424Z,65.70
2018-06-27T14:22:13.510Z,65.90
2018-06-27T14:24:42.474Z,64.40
2018-06-27T14:27:11.447Z,63.50
2018-06-27T14:29:40.393Z,63.70
2018-06-27T14:32:09.508Z,63.70
2018-06-27T14:34:38.607Z,63.60
2018-06-27T14:37:07.669Z,64.60
2018-06-27T14:39:36.707Z,64.50
2018-06-27T14:42:05.833Z,63.20
2018-06-27T14:44:34.946Z,63.30
2018-06-27T14:49:55.552Z,64.70
2018-06-27T14:52:24.582Z,64.10
2018-06-27T14:54:53.628Z,64.60
2018-06-27T15:00:16.566Z,63.00
2018-06-27T15:02:45.626Z,63.10
2018-06-27T15:05:14.593Z,62.90
2018-06-27T15:07:43.768Z,62.30
2018-06-27T15:10:12.758Z,62.60
2018-06-27T15:12:41.859Z,61.30
2018-06-27T15:15:10.979Z,60.60
2018-06-27T15:20:08.615Z,61.00
2018-06-27T15:22:37.702Z,61.30
2018-06-27T15:25:06.801Z,59.80
2018-06-27T15:30:04.903Z,60.00
2018-06-27T15:32:34.284Z,59.80
2018-06-27T15:35:03.981Z,59.80
2018-06-27T15:37:33.353Z,60.20
2018-06-27T15:40:02.531Z,59.50
2018-06-27T15:42:31.777Z,59.60
2018-06-27T15:45:00.975Z,59.70
2018-06-27T15:47:30.285Z,59.50
2018-06-27T15:49:59.695Z,60.20
2018-06-27T15:52:29.102Z,60.20
2018-06-27T15:54:58.500Z,60.00
2018-06-27T15:57:27.529Z,60.70
2018-06-27T15:59:56.646Z,60.90
2018-06-27T16:02:25.891Z,60.70
2018-06-27T16:04:55.593Z,60.00
2018-06-27T16:07:24.980Z,60.60
2018-06-27T16:09:54.127Z,59.90
2018-06-27T16:12:23.464Z,60.30
2018-06-27T16:14:52.440Z,61.10
2018-06-27T16:17:22.463Z,60.70
2018-06-27T16:19:51.382Z,60.70
2018-06-27T16:22:20.406Z,61.20
2018-06-27T16:24:49.882Z,61.20
2018-06-27T16:27:19.954Z,61.80
2018-06-27T16:32:17.668Z,60.00
2018-06-27T16:34:46.799Z,59.90
2018-06-27T16:37:16.110Z,60.40
2018-06-27T16:39:45.433Z,61.40
2018-06-27T16:42:14.409Z,60.60
2018-06-27T16:44:43.408Z,61.10
2018-06-27T16:47:12.321Z,60.50
2018-06-27T16:49:41.285Z,61.00
2018-06-27T16:52:10.387Z,60.10
2018-06-27T16:54:39.392Z,59.10
2018-06-27T16:57:08.309Z,59.30
2018-06-27T16:59:37.404Z,58.90
2018-06-27T17:02:06.388Z,58.60
2018-06-27T17:04:35.443Z,59.00
2018-06-27T17:07:04.578Z,59.50
2018-06-27T17:09:33.440Z,59.90
2018-06-27T17:12:02.438Z,59.50
2018-06-27T17:14:31.533Z,59.80
2018-06-27T17:17:00.635Z,59.70
2018-06-27T17:19:29.597Z,60.00
2018-06-27T17:21:58.597Z,60.00
2018-06-27T17:24:28.020Z,60.20
2018-06-27T17:26:57.035Z,60.40
2018-06-27T17:29:26.295Z,60.30
2018-06-27T17:31:55.562Z,60.80
2018-06-27T17:34:24.646Z,61.00
2018-06-27T17:36:53.674Z,61.70
2018-06-27T17:39:22.718Z,62.30
2018-06-27T17:41:51.753Z,61.80
2018-06-27T17:44:20.721Z,62.20
2018-06-27T17:46:49.710Z,61.80
2018-06-27T17:49:18.649Z,62.30
2018-06-27T17:54:16.094Z,62.00
2018-06-27T17:56:45.154Z,62.90
2018-06-27T17:59:14.085Z,61.90
2018-06-27T18:01:44.046Z,61.40
2018-06-27T18:04:13.049Z,60.70
2018-06-27T18:06:43.732Z,61.50
2018-06-27T18:09:12.745Z,61.40
2018-06-27T18:14:10.159Z,62.30
2018-06-27T18:16:39.212Z,62.50
2018-06-27T18:19:08.174Z,62.20
2018-06-27T18:21:37.163Z,62.50
2018-06-27T18:24:06.214Z,61.80
2018-06-27T18:29:04.067Z,62.70
2018-06-27T18:31:33.023Z,62.20
2018-06-27T18:36:37.211Z,62.60
2018-06-27T18:39:07.477Z,62.90
2018-06-27T18:41:36.464Z,63.20
2018-06-27T18:44:05.496Z,62.40
2018-06-27T18:46:34.491Z,62.80
2018-06-27T18:49:03.459Z,63.30
2018-06-27T18:51:32.520Z,62.60
2018-06-27T18:54:01.726Z,62.60
2018-06-27T18:56:30.734Z,62.90
2018-06-27T18:58:59.733Z,62.90
2018-06-27T19:01:28.829Z,63.10
2018-06-27T19:03:57.789Z,62.90
2018-06-27T19:06:26.829Z,63.20
2018-06-27T19:08:55.798Z,63.50
2018-06-27T19:11:24.856Z,63.20
2018-06-27T19:13:53.874Z,63.40
2018-06-27T19:18:51.381Z,64.00
2018-06-27T19:21:20.274Z,63.70
2018-06-27T19:23:49.509Z,64.10
2018-06-27T19:26:18.470Z,64.40
2018-06-27T19:28:47.616Z,64.60
2018-06-27T19:31:16.658Z,64.90
2018-06-27T19:33:46.353Z,64.40
2018-06-27T19:36:15.236Z,64.40
2018-06-27T19:38:44.255Z,65.50
2018-06-27T19:41:13.277Z,65.00
2018-06-27T19:43:42.218Z,65.50
2018-06-27T19:46:11.238Z,66.10
2018-06-27T19:48:41.069Z,65.70
2018-06-27T19:51:10.069Z,65.50
2018-06-27T19:53:38.967Z,66.20
2018-06-27T19:56:07.978Z,66.20
2018-06-27T19:58:36.971Z,66.30
2018-06-27T20:01:05.968Z,66.20
2018-06-27T20:03:34.978Z,65.90
2018-06-27T20:06:04.009Z,67.00
2018-06-27T20:08:32.977Z,67.00
2018-06-27T20:11:01.886Z,66.60
2018-06-27T20:13:30.930Z,66.70
2018-06-27T20:15:59.929Z,66.80
2018-06-27T20:18:28.815Z,67.20
2018-06-27T20:20:57.811Z,68.50
2018-06-27T20:23:26.723Z,69.00
2018-06-27T20:25:55.685Z,68.50
2018-06-27T20:28:24.670Z,67.10
2018-06-27T20:30:53.662Z,67.50
2018-06-27T20:33:22.558Z,67.50
2018-06-27T20:35:51.608Z,67.60
2018-06-27T20:38:20.553Z,68.00
2018-06-27T20:40:49.539Z,67.70
2018-06-27T20:43:18.462Z,68.10
2018-06-27T20:45:47.417Z,69.20
2018-06-27T20:48:16.493Z,68.10
2018-06-27T20:50:45.445Z,68.50
2018-06-27T20:53:14.430Z,68.80
2018-06-27T20:55:43.373Z,68.70
2018-06-27T20:58:12.433Z,69.30
2018-06-27T21:00:41.382Z,68.70
2018-06-27T21:05:38.845Z,69.00
2018-06-27T21:08:08.036Z,70.00
2018-06-27T21:10:37.086Z,69.50
2018-06-27T21:13:06.058Z,69.40
2018-06-27T21:15:34.954Z,70.50
2018-06-27T21:18:04.361Z,70.00
2018-06-27T21:20:33.263Z,70.50
2018-06-27T21:23:02.189Z,70.70
2018-06-27T21:25:31.147Z,70.30
2018-06-27T21:28:00.129Z,72.10
2018-06-27T21:30:29.140Z,70.50
2018-06-27T21:32:58.114Z,70.80
2018-06-27T21:35:27.133Z,71.40
2018-06-27T21:37:55.985Z,71.80
2018-06-27T21:40:24.929Z,71.40
2018-06-27T21:42:53.863Z,72.10
2018-06-27T21:45:22.776Z,73.10
2018-06-27T21:47:51.691Z,71.90
2018-06-27T21:50:20.697Z,71.80
2018-06-27T21:52:49.630Z,72.50
2018-06-27T21:55:18.610Z,72.70
2018-06-27T21:57:47.563Z,74.30
2018-06-27T22:00:18.075Z,74.20
2018-06-27T22:02:46.990Z,73.50
2018-06-27T22:07:44.363Z,75.50
2018-06-27T22:10:13.275Z,75.80
2018-06-27T22:12:42.214Z,75.10
2018-06-27T22:17:39.557Z,75.60
2018-06-27T22:20:08.433Z,75.30
2018-06-27T22:22:37.521Z,75.40
2018-06-27T22:25:06.475Z,75.80
2018-06-27T22:27:35.422Z,75.30
2018-06-27T22:30:04.785Z,75.30
2018-06-27T22:32:33.705Z,76.70
2018-06-27T22:35:02.677Z,77.50
2018-06-27T22:37:31.711Z,77.10
2018-06-27T22:40:00.670Z,77.70
2018-06-27T22:42:29.610Z,77.30
2018-06-27T22:44:58.554Z,76.80
2018-06-27T22:47:27.588Z,79.40
2018-06-27T22:49:56.513Z,77.50
2018-06-27T22:52:25.449Z,77.60
2018-06-27T22:54:54.385Z,78.80
2018-06-27T22:57:23.306Z,77.70
2018-06-27T22:59:52.250Z,77.80
2018-06-27T23:02:21.241Z,78.90
2018-06-27T23:04:50.186Z,79.50
2018-06-27T23:07:19.127Z,79.00
2018-06-27T23:09:48.506Z,79.20
2018-06-27T23:12:17.403Z,78.80
2018-06-27T23:14:46.356Z,79.90
2018-06-27T23:17:15.304Z,80.10
2018-06-27T23:19:45.165Z,79.90
2018-06-27T23:22:25.454Z,80.80
2018-06-27T23:24:54.393Z,81.70
2018-06-27T23:27:23.530Z,80.70
2018-06-27T23:29:52.437Z,81.50
2018-06-27T23:32:21.481Z,82.00
2018-06-27T23:34:50.410Z,81.60
2018-06-27T23:37:19.409Z,82.00
2018-06-27T23:39:48.305Z,82.20
2018-06-27T23:42:17.241Z,83.40
2018-06-27T23:44:46.214Z,80.70
2018-06-27T23:47:15.103Z,82.30
2018-06-27T23:49:44.054Z,83.30
2018-06-27T23:52:12.943Z,83.20
2018-06-27T23:54:41.842Z,82.40
2018-06-27T23:57:10.754Z,83.20
2018-06-27T23:59:39.615Z,82.90
